sensor_id;sensor_type;location;lat;lon;timestamp;P1;durP1;ratioP1;P2;durP2;ratioP2
23001;SDS011;11667;51.706;4.856;2023-11-19T00:02:08;0.30;;;0.30;;
23001;SDS011;11667;51.706;4.856;2023-11-19T00:04:38;1.52;;;1.12;;
23001;SDS011;11667;51.706;4.856;2023-11-19T00:07:08;0.42;;;0.42;;
23001;SDS011;11667;51.706;4.856;2023-11-19T00:09:38;0.70;;;0.57;;
23001;SDS011;11667;51.706;4.856;2023-11-19T00:12:07;11.80;;;2.45;;
23001;SDS011;11667;51.706;4.856;2023-11-19T00:14:36;0.53;;;0.45;;
23001;SDS011;11667;51.706;4.856;2023-11-19T00:17:06;2.62;;;1.07;;
23001;SDS011;11667;51.706;4.856;2023-11-19T00:19:35;0.20;;;0.20;;
23001;SDS011;11667;51.706;4.856;2023-11-19T00:22:04;0.45;;;0.35;;
23001;SDS011;11667;51.706;4.856;2023-11-19T00:24:34;0.10;;;0.10;;
23001;SDS011;11667;51.706;4.856;2023-11-19T00:27:03;1.62;;;0.82;;
23001;SDS011;11667;51.706;4.856;2023-11-19T00:29:34;0.00;;;0.00;;
23001;SDS011;11667;51.706;4.856;2023-11-19T00:32:04;1.77;;;1.20;;
23001;SDS011;11667;51.706;4.856;2023-11-19T00:34:35;0.20;;;0.20;;
23001;SDS011;11667;51.706;4.856;2023-11-19T00:37:04;0.10;;;0.10;;
23001;SDS011;11667;51.706;4.856;2023-11-19T00:39:34;0.25;;;0.25;;
23001;SDS011;11667;51.706;4.856;2023-11-19T00:42:03;0.40;;;0.40;;
23001;SDS011;11667;51.706;4.856;2023-11-19T00:44:33;0.68;;;0.68;;
23001;SDS011;11667;51.706;4.856;2023-11-19T00:47:02;11.18;;;2.15;;
23001;SDS011;11667;51.706;4.856;2023-11-19T00:49:32;5.00;;;1.42;;
23001;SDS011;11667;51.706;4.856;2023-11-19T00:52:03;2.17;;;1.30;;
23001;SDS011;11667;51.706;4.856;2023-11-19T00:54:33;0.28;;;0.28;;
23001;SDS011;11667;51.706;4.856;2023-11-19T00:57:03;0.42;;;0.20;;
23001;SDS011;11667;51.706;4.856;2023-11-19T00:59:33;2.35;;;0.75;;
23001;SDS011;11667;51.706;4.856;2023-11-19T01:02:03;4.20;;;1.45;;
23001;SDS011;11667;51.706;4.856;2023-11-19T01:04:35;0.70;;;0.53;;
23001;SDS011;11667;51.706;4.856;2023-11-19T01:07:05;0.60;;;0.55;;
23001;SDS011;11667;51.706;4.856;2023-11-19T01:09:34;4.90;;;0.53;;
23001;SDS011;11667;51.706;4.856;2023-11-19T01:12:04;0.20;;;0.20;;
23001;SDS011;11667;51.706;4.856;2023-11-19T01:14:34;0.17;;;0.17;;
23001;SDS011;11667;51.706;4.856;2023-11-19T01:17:05;1.95;;;1.25;;
23001;SDS011;11667;51.706;4.856;2023-11-19T01:19:34;12.93;;;1.10;;
23001;SDS011;11667;51.706;4.856;2023-11-19T01:22:04;6.58;;;2.40;;
23001;SDS011;11667;51.706;4.856;2023-11-19T01:24:34;32.93;;;1.80;;
23001;SDS011;11667;51.706;4.856;2023-11-19T01:27:04;0.53;;;0.42;;
23001;SDS011;11667;51.706;4.856;2023-11-19T01:29:33;0.23;;;0.23;;
23001;SDS011;11667;51.706;4.856;2023-11-19T01:32:02;6.53;;;1.37;;
23001;SDS011;11667;51.706;4.856;2023-11-19T01:34:32;0.65;;;0.65;;
23001;SDS011;11667;51.706;4.856;2023-11-19T01:37:02;0.28;;;0.20;;
23001;SDS011;11667;51.706;4.856;2023-11-19T01:39:31;1.65;;;0.98;;
23001;SDS011;11667;51.706;4.856;2023-11-19T01:42:00;0.65;;;0.33;;
23001;SDS011;11667;51.706;4.856;2023-11-19T01:44:30;8.05;;;1.40;;
23001;SDS011;11667;51.706;4.856;2023-11-19T01:46:59;3.62;;;1.35;;
23001;SDS011;11667;51.706;4.856;2023-11-19T01:49:30;3.62;;;0.98;;
23001;SDS011;11667;51.706;4.856;2023-11-19T01:52:00;1.47;;;0.68;;
23001;SDS011;11667;51.706;4.856;2023-11-19T01:54:30;15.00;;;1.82;;
23001;SDS011;11667;51.706;4.856;2023-11-19T01:57:00;4.05;;;0.72;;
23001;SDS011;11667;51.706;4.856;2023-11-19T01:59:30;2.62;;;1.12;;
23001;SDS011;11667;51.706;4.856;2023-11-19T02:01:59;1.40;;;0.88;;
23001;SDS011;11667;51.706;4.856;2023-11-19T02:04:29;21.35;;;2.20;;
23001;SDS011;11667;51.706;4.856;2023-11-19T02:06:58;8.40;;;2.33;;
23001;SDS011;11667;51.706;4.856;2023-11-19T02:09:28;25.75;;;2.10;;
23001;SDS011;11667;51.706;4.856;2023-11-19T02:11:57;0.37;;;0.37;;
23001;SDS011;11667;51.706;4.856;2023-11-19T02:14:26;0.10;;;0.10;;
23001;SDS011;11667;51.706;4.856;2023-11-19T02:16:56;4.00;;;1.50;;
23001;SDS011;11667;51.706;4.856;2023-11-19T02:19:25;24.40;;;2.33;;
23001;SDS011;11667;51.706;4.856;2023-11-19T02:21:55;2.22;;;1.22;;
23001;SDS011;11667;51.706;4.856;2023-11-19T02:24:25;2.10;;;0.72;;
23001;SDS011;11667;51.706;4.856;2023-11-19T02:26:58;21.35;;;1.22;;
23001;SDS011;11667;51.706;4.856;2023-11-19T02:29:36;3.67;;;1.37;;
23001;SDS011;11667;51.706;4.856;2023-11-19T02:32:07;3.17;;;2.40;;
23001;SDS011;11667;51.706;4.856;2023-11-19T02:34:37;1.27;;;0.82;;
23001;SDS011;11667;51.706;4.856;2023-11-19T02:37:06;8.50;;;1.10;;
23001;SDS011;11667;51.706;4.856;2023-11-19T02:39:36;1.98;;;1.77;;
23001;SDS011;11667;51.706;4.856;2023-11-19T02:42:05;0.20;;;0.20;;
23001;SDS011;11667;51.706;4.856;2023-11-19T02:44:35;6.92;;;1.62;;
23001;SDS011;11667;51.706;4.856;2023-11-19T02:47:05;3.25;;;1.22;;
23001;SDS011;11667;51.706;4.856;2023-11-19T02:49:35;8.08;;;0.82;;
23001;SDS011;11667;51.706;4.856;2023-11-19T02:52:05;1.15;;;0.70;;
23001;SDS011;11667;51.706;4.856;2023-11-19T02:54:34;29.40;;;0.78;;
23001;SDS011;11667;51.706;4.856;2023-11-19T02:57:04;4.80;;;1.70;;
23001;SDS011;11667;51.706;4.856;2023-11-19T02:59:37;4.90;;;1.75;;
23001;SDS011;11667;51.706;4.856;2023-11-19T03:02:12;0.65;;;0.65;;
23001;SDS011;11667;51.706;4.856;2023-11-19T03:04:40;1.98;;;1.47;;
23001;SDS011;11667;51.706;4.856;2023-11-19T03:07:11;7.37;;;1.87;;
23001;SDS011;11667;51.706;4.856;2023-11-19T03:09:41;0.25;;;0.25;;
23001;SDS011;11667;51.706;4.856;2023-11-19T03:12:11;2.15;;;1.98;;
23001;SDS011;11667;51.706;4.856;2023-11-19T03:14:40;3.62;;;1.65;;
23001;SDS011;11667;51.706;4.856;2023-11-19T03:17:11;6.33;;;1.85;;
23001;SDS011;11667;51.706;4.856;2023-11-19T03:19:41;2.10;;;1.47;;
23001;SDS011;11667;51.706;4.856;2023-11-19T03:22:11;64.85;;;6.95;;
23001;SDS011;11667;51.706;4.856;2023-11-19T03:24:40;56.68;;;6.67;;
23001;SDS011;11667;51.706;4.856;2023-11-19T03:27:09;61.28;;;6.70;;
23001;SDS011;11667;51.706;4.856;2023-11-19T03:29:40;49.90;;;6.85;;
23001;SDS011;11667;51.706;4.856;2023-11-19T03:32:10;65.12;;;7.40;;
23001;SDS011;11667;51.706;4.856;2023-11-19T03:34:40;51.68;;;6.55;;
23001;SDS011;11667;51.706;4.856;2023-11-19T03:37:09;60.33;;;7.10;;
23001;SDS011;11667;51.706;4.856;2023-11-19T03:39:38;51.83;;;6.87;;
23001;SDS011;11667;51.706;4.856;2023-11-19T03:42:08;54.40;;;7.10;;
23001;SDS011;11667;51.706;4.856;2023-11-19T03:44:39;55.23;;;8.13;;
23001;SDS011;11667;51.706;4.856;2023-11-19T03:47:08;57.17;;;7.58;;
23001;SDS011;11667;51.706;4.856;2023-11-19T03:49:37;64.15;;;8.05;;
23001;SDS011;11667;51.706;4.856;2023-11-19T03:52:07;67.05;;;8.30;;
23001;SDS011;11667;51.706;4.856;2023-11-19T03:54:38;60.88;;;8.08;;
23001;SDS011;11667;51.706;4.856;2023-11-19T03:57:07;57.40;;;8.20;;
23001;SDS011;11667;51.706;4.856;2023-11-19T03:59:39;64.45;;;8.28;;
23001;SDS011;11667;51.706;4.856;2023-11-19T04:02:08;61.88;;;7.55;;
23001;SDS011;11667;51.706;4.856;2023-11-19T04:04:37;58.98;;;7.42;;
23001;SDS011;11667;51.706;4.856;2023-11-19T04:07:07;61.35;;;8.58;;
23001;SDS011;11667;51.706;4.856;2023-11-19T04:09:37;65.97;;;8.23;;
23001;SDS011;11667;51.706;4.856;2023-11-19T04:12:06;62.60;;;8.33;;
23001;SDS011;11667;51.706;4.856;2023-11-19T04:14:36;44.50;;;7.30;;
23001;SDS011;11667;51.706;4.856;2023-11-19T04:17:05;58.13;;;8.28;;
23001;SDS011;11667;51.706;4.856;2023-11-19T04:19:35;56.83;;;7.75;;
23001;SDS011;11667;51.706;4.856;2023-11-19T04:22:04;49.53;;;7.37;;
23001;SDS011;11667;51.706;4.856;2023-11-19T04:24:33;45.10;;;7.08;;
23001;SDS011;11667;51.706;4.856;2023-11-19T04:27:05;51.20;;;6.45;;
23001;SDS011;11667;51.706;4.856;2023-11-19T04:29:34;60.15;;;8.33;;
23001;SDS011;11667;51.706;4.856;2023-11-19T04:32:04;58.08;;;7.67;;
23001;SDS011;11667;51.706;4.856;2023-11-19T04:34:34;56.88;;;7.28;;
23001;SDS011;11667;51.706;4.856;2023-11-19T04:37:05;52.17;;;7.78;;
23001;SDS011;11667;51.706;4.856;2023-11-19T04:39:36;56.00;;;7.78;;
23001;SDS011;11667;51.706;4.856;2023-11-19T04:42:05;59.03;;;7.87;;
23001;SDS011;11667;51.706;4.856;2023-11-19T04:44:34;51.13;;;7.45;;
23001;SDS011;11667;51.706;4.856;2023-11-19T04:47:04;61.73;;;8.63;;
23001;SDS011;11667;51.706;4.856;2023-11-19T04:49:33;54.27;;;8.13;;
23001;SDS011;11667;51.706;4.856;2023-11-19T04:52:02;55.00;;;7.15;;
23001;SDS011;11667;51.706;4.856;2023-11-19T04:54:32;47.85;;;7.62;;
23001;SDS011;11667;51.706;4.856;2023-11-19T04:57:01;60.38;;;8.35;;
23001;SDS011;11667;51.706;4.856;2023-11-19T04:59:31;53.78;;;7.85;;
23001;SDS011;11667;51.706;4.856;2023-11-19T05:02:01;56.08;;;7.90;;
23001;SDS011;11667;51.706;4.856;2023-11-19T05:04:31;57.08;;;7.97;;
23001;SDS011;11667;51.706;4.856;2023-11-19T05:07:01;63.80;;;7.97;;
23001;SDS011;11667;51.706;4.856;2023-11-19T05:09:30;58.63;;;7.95;;
23001;SDS011;11667;51.706;4.856;2023-11-19T05:11:59;66.15;;;8.33;;
23001;SDS011;11667;51.706;4.856;2023-11-19T05:14:29;64.90;;;7.58;;
23001;SDS011;11667;51.706;4.856;2023-11-19T05:16:59;55.23;;;7.87;;
23001;SDS011;11667;51.706;4.856;2023-11-19T05:19:28;60.40;;;8.20;;
23001;SDS011;11667;51.706;4.856;2023-11-19T05:21:58;59.77;;;8.00;;
23001;SDS011;11667;51.706;4.856;2023-11-19T05:24:27;69.82;;;8.38;;
23001;SDS011;11667;51.706;4.856;2023-11-19T05:26:57;63.17;;;8.35;;
23001;SDS011;11667;51.706;4.856;2023-11-19T05:29:26;55.38;;;7.17;;
23001;SDS011;11667;51.706;4.856;2023-11-19T05:31:56;57.85;;;7.62;;
23001;SDS011;11667;51.706;4.856;2023-11-19T05:34:27;57.62;;;8.05;;
23001;SDS011;11667;51.706;4.856;2023-11-19T05:36:56;68.75;;;8.13;;
23001;SDS011;11667;51.706;4.856;2023-11-19T05:39:26;58.23;;;8.25;;
23001;SDS011;11667;51.706;4.856;2023-11-19T05:41:56;53.87;;;7.78;;
23001;SDS011;11667;51.706;4.856;2023-11-19T05:44:26;63.17;;;8.95;;
23001;SDS011;11667;51.706;4.856;2023-11-19T05:46:55;62.27;;;8.15;;
23001;SDS011;11667;51.706;4.856;2023-11-19T05:49:25;56.70;;;7.40;;
23001;SDS011;11667;51.706;4.856;2023-11-19T05:51:54;54.80;;;7.30;;
23001;SDS011;11667;51.706;4.856;2023-11-19T05:54:23;62.85;;;8.58;;
23001;SDS011;11667;51.706;4.856;2023-11-19T05:56:53;57.30;;;8.53;;
23001;SDS011;11667;51.706;4.856;2023-11-19T05:59:23;63.35;;;8.45;;
23001;SDS011;11667;51.706;4.856;2023-11-19T06:01:53;58.85;;;8.45;;
23001;SDS011;11667;51.706;4.856;2023-11-19T06:04:22;54.88;;;8.90;;
23001;SDS011;11667;51.706;4.856;2023-11-19T06:06:52;67.90;;;8.43;;
23001;SDS011;11667;51.706;4.856;2023-11-19T06:09:22;49.53;;;8.03;;
23001;SDS011;11667;51.706;4.856;2023-11-19T06:11:51;59.85;;;8.85;;
23001;SDS011;11667;51.706;4.856;2023-11-19T06:14:23;59.53;;;7.12;;
23001;SDS011;11667;51.706;4.856;2023-11-19T06:16:52;50.00;;;7.22;;
23001;SDS011;11667;51.706;4.856;2023-11-19T06:19:21;62.98;;;7.97;;
23001;SDS011;11667;51.706;4.856;2023-11-19T06:21:54;64.27;;;7.78;;
23001;SDS011;11667;51.706;4.856;2023-11-19T06:24:23;57.55;;;7.62;;
23001;SDS011;11667;51.706;4.856;2023-11-19T06:26:52;64.17;;;7.42;;
23001;SDS011;11667;51.706;4.856;2023-11-19T06:29:22;60.43;;;7.78;;
23001;SDS011;11667;51.706;4.856;2023-11-19T06:31:51;50.03;;;7.80;;
23001;SDS011;11667;51.706;4.856;2023-11-19T06:34:20;60.25;;;8.10;;
23001;SDS011;11667;51.706;4.856;2023-11-19T06:36:50;52.78;;;7.42;;
23001;SDS011;11667;51.706;4.856;2023-11-19T06:39:20;59.70;;;7.95;;
23001;SDS011;11667;51.706;4.856;2023-11-19T06:41:49;49.00;;;7.78;;
23001;SDS011;11667;51.706;4.856;2023-11-19T06:44:18;54.18;;;7.53;;
23001;SDS011;11667;51.706;4.856;2023-11-19T06:46:48;52.48;;;7.83;;
23001;SDS011;11667;51.706;4.856;2023-11-19T06:49:18;55.98;;;7.62;;
23001;SDS011;11667;51.706;4.856;2023-11-19T06:51:49;64.87;;;8.30;;
23001;SDS011;11667;51.706;4.856;2023-11-19T06:54:18;56.00;;;7.55;;
23001;SDS011;11667;51.706;4.856;2023-11-19T06:56:48;48.42;;;6.95;;
23001;SDS011;11667;51.706;4.856;2023-11-19T06:59:18;62.10;;;8.15;;
23001;SDS011;11667;51.706;4.856;2023-11-19T07:01:47;48.68;;;7.62;;
23001;SDS011;11667;51.706;4.856;2023-11-19T07:04:16;53.87;;;8.10;;
23001;SDS011;11667;51.706;4.856;2023-11-19T07:06:46;47.73;;;6.80;;
23001;SDS011;11667;51.706;4.856;2023-11-19T07:09:16;51.15;;;7.97;;
23001;SDS011;11667;51.706;4.856;2023-11-19T07:11:46;45.03;;;6.45;;
23001;SDS011;11667;51.706;4.856;2023-11-19T07:14:15;56.53;;;7.03;;
23001;SDS011;11667;51.706;4.856;2023-11-19T07:16:45;61.98;;;7.72;;
23001;SDS011;11667;51.706;4.856;2023-11-19T07:19:14;53.83;;;7.08;;
23001;SDS011;11667;51.706;4.856;2023-11-19T07:21:44;59.40;;;7.85;;
23001;SDS011;11667;51.706;4.856;2023-11-19T07:24:13;47.88;;;7.08;;
23001;SDS011;11667;51.706;4.856;2023-11-19T07:26:43;53.00;;;7.17;;
23001;SDS011;11667;51.706;4.856;2023-11-19T07:29:14;56.83;;;6.42;;
23001;SDS011;11667;51.706;4.856;2023-11-19T07:31:48;44.80;;;7.10;;
23001;SDS011;11667;51.706;4.856;2023-11-19T07:34:18;49.48;;;6.80;;
23001;SDS011;11667;51.706;4.856;2023-11-19T07:36:48;48.63;;;6.47;;
23001;SDS011;11667;51.706;4.856;2023-11-19T07:39:18;44.27;;;6.55;;
23001;SDS011;11667;51.706;4.856;2023-11-19T07:41:48;55.63;;;7.60;;
23001;SDS011;11667;51.706;4.856;2023-11-19T07:44:19;45.48;;;6.20;;
23001;SDS011;11667;51.706;4.856;2023-11-19T07:46:49;51.60;;;7.17;;
23001;SDS011;11667;51.706;4.856;2023-11-19T07:49:18;47.20;;;6.80;;
23001;SDS011;11667;51.706;4.856;2023-11-19T07:51:47;44.03;;;7.30;;
23001;SDS011;11667;51.706;4.856;2023-11-19T07:54:17;41.05;;;6.40;;
23001;SDS011;11667;51.706;4.856;2023-11-19T07:56:46;52.10;;;7.28;;
23001;SDS011;11667;51.706;4.856;2023-11-19T07:59:17;41.15;;;6.37;;
23001;SDS011;11667;51.706;4.856;2023-11-19T08:01:46;48.55;;;6.53;;
23001;SDS011;11667;51.706;4.856;2023-11-19T08:04:16;38.45;;;6.75;;
23001;SDS011;11667;51.706;4.856;2023-11-19T08:06:45;44.58;;;6.03;;
23001;SDS011;11667;51.706;4.856;2023-11-19T08:09:14;54.95;;;6.83;;
23001;SDS011;11667;51.706;4.856;2023-11-19T08:11:44;47.08;;;6.10;;
23001;SDS011;11667;51.706;4.856;2023-11-19T08:14:13;58.78;;;7.70;;
23001;SDS011;11667;51.706;4.856;2023-11-19T08:16:42;50.85;;;6.65;;
23001;SDS011;11667;51.706;4.856;2023-11-19T08:19:12;51.68;;;7.22;;
23001;SDS011;11667;51.706;4.856;2023-11-19T08:21:41;51.18;;;7.45;;
23001;SDS011;11667;51.706;4.856;2023-11-19T08:24:10;47.67;;;6.40;;
23001;SDS011;11667;51.706;4.856;2023-11-19T08:26:40;41.37;;;6.35;;
23001;SDS011;11667;51.706;4.856;2023-11-19T08:29:09;47.17;;;6.58;;
23001;SDS011;11667;51.706;4.856;2023-11-19T08:31:39;47.88;;;7.25;;
23001;SDS011;11667;51.706;4.856;2023-11-19T08:34:08;47.78;;;6.47;;
23001;SDS011;11667;51.706;4.856;2023-11-19T08:36:38;42.73;;;6.15;;
23001;SDS011;11667;51.706;4.856;2023-11-19T08:39:07;51.08;;;6.53;;
23001;SDS011;11667;51.706;4.856;2023-11-19T08:41:36;46.53;;;6.95;;
23001;SDS011;11667;51.706;4.856;2023-11-19T08:44:07;45.63;;;6.97;;
23001;SDS011;11667;51.706;4.856;2023-11-19T08:46:37;44.50;;;6.47;;
23001;SDS011;11667;51.706;4.856;2023-11-19T08:49:07;43.63;;;6.72;;
23001;SDS011;11667;51.706;4.856;2023-11-19T08:51:36;51.23;;;7.22;;
23001;SDS011;11667;51.706;4.856;2023-11-19T08:54:06;43.58;;;6.75;;
23001;SDS011;11667;51.706;4.856;2023-11-19T08:56:35;47.03;;;6.40;;
23001;SDS011;11667;51.706;4.856;2023-11-19T08:59:06;46.73;;;7.03;;
23001;SDS011;11667;51.706;4.856;2023-11-19T09:01:36;49.40;;;7.37;;
23001;SDS011;11667;51.706;4.856;2023-11-19T09:04:05;43.98;;;7.03;;
23001;SDS011;11667;51.706;4.856;2023-11-19T09:06:35;38.28;;;5.70;;
23001;SDS011;11667;51.706;4.856;2023-11-19T09:09:05;57.17;;;7.55;;
23001;SDS011;11667;51.706;4.856;2023-11-19T09:11:34;45.10;;;6.40;;
23001;SDS011;11667;51.706;4.856;2023-11-19T09:14:04;42.58;;;6.22;;
23001;SDS011;11667;51.706;4.856;2023-11-19T09:16:34;43.55;;;6.65;;
23001;SDS011;11667;51.706;4.856;2023-11-19T09:19:03;41.83;;;7.15;;
23001;SDS011;11667;51.706;4.856;2023-11-19T09:21:33;41.48;;;5.87;;
23001;SDS011;11667;51.706;4.856;2023-11-19T09:24:04;43.52;;;5.85;;
23001;SDS011;11667;51.706;4.856;2023-11-19T09:26:35;47.60;;;7.00;;
23001;SDS011;11667;51.706;4.856;2023-11-19T09:29:06;45.75;;;6.62;;
23001;SDS011;11667;51.706;4.856;2023-11-19T09:31:37;44.25;;;6.60;;
23001;SDS011;11667;51.706;4.856;2023-11-19T09:34:07;42.90;;;6.40;;
23001;SDS011;11667;51.706;4.856;2023-11-19T09:36:36;46.73;;;8.00;;
23001;SDS011;11667;51.706;4.856;2023-11-19T09:39:06;41.13;;;6.42;;
23001;SDS011;11667;51.706;4.856;2023-11-19T09:41:36;42.67;;;6.53;;
23001;SDS011;11667;51.706;4.856;2023-11-19T09:44:05;49.13;;;6.55;;
23001;SDS011;11667;51.706;4.856;2023-11-19T09:46:35;45.55;;;6.33;;
23001;SDS011;11667;51.706;4.856;2023-11-19T09:49:04;38.10;;;6.28;;
23001;SDS011;11667;51.706;4.856;2023-11-19T09:51:36;43.33;;;6.75;;
23001;SDS011;11667;51.706;4.856;2023-11-19T09:54:06;50.28;;;7.17;;
23001;SDS011;11667;51.706;4.856;2023-11-19T09:56:35;49.38;;;6.03;;
23001;SDS011;11667;51.706;4.856;2023-11-19T09:59:05;48.45;;;6.70;;
23001;SDS011;11667;51.706;4.856;2023-11-19T10:01:34;34.25;;;6.00;;
23001;SDS011;11667;51.706;4.856;2023-11-19T10:04:05;46.05;;;6.50;;
23001;SDS011;11667;51.706;4.856;2023-11-19T10:06:35;36.73;;;5.80;;
23001;SDS011;11667;51.706;4.856;2023-11-19T10:09:04;38.80;;;6.80;;
23001;SDS011;11667;51.706;4.856;2023-11-19T10:11:34;43.35;;;6.90;;
23001;SDS011;11667;51.706;4.856;2023-11-19T10:14:03;37.13;;;6.33;;
23001;SDS011;11667;51.706;4.856;2023-11-19T10:16:34;32.90;;;5.85;;
23001;SDS011;11667;51.706;4.856;2023-11-19T10:19:03;42.25;;;7.35;;
23001;SDS011;11667;51.706;4.856;2023-11-19T10:21:33;41.58;;;6.83;;
23001;SDS011;11667;51.706;4.856;2023-11-19T10:24:02;41.60;;;6.47;;
23001;SDS011;11667;51.706;4.856;2023-11-19T10:26:35;40.63;;;6.75;;
23001;SDS011;11667;51.706;4.856;2023-11-19T10:29:05;40.83;;;6.37;;
23001;SDS011;11667;51.706;4.856;2023-11-19T10:31:34;40.83;;;6.75;;
23001;SDS011;11667;51.706;4.856;2023-11-19T10:34:03;46.45;;;7.03;;
23001;SDS011;11667;51.706;4.856;2023-11-19T10:36:37;36.15;;;6.53;;
23001;SDS011;11667;51.706;4.856;2023-11-19T10:39:09;40.70;;;5.97;;
23001;SDS011;11667;51.706;4.856;2023-11-19T10:41:39;39.08;;;6.08;;
23001;SDS011;11667;51.706;4.856;2023-11-19T10:44:08;35.68;;;5.85;;
23001;SDS011;11667;51.706;4.856;2023-11-19T10:46:41;42.73;;;6.62;;
23001;SDS011;11667;51.706;4.856;2023-11-19T10:49:12;40.75;;;6.62;;
23001;SDS011;11667;51.706;4.856;2023-11-19T10:51:44;37.90;;;6.28;;
23001;SDS011;11667;51.706;4.856;2023-11-19T10:54:15;36.98;;;6.10;;
23001;SDS011;11667;51.706;4.856;2023-11-19T10:56:49;44.83;;;6.50;;
23001;SDS011;11667;51.706;4.856;2023-11-19T10:59:19;34.50;;;5.00;;
23001;SDS011;11667;51.706;4.856;2023-11-19T11:01:52;32.25;;;5.25;;
23001;SDS011;11667;51.706;4.856;2023-11-19T11:04:25;33.28;;;5.45;;
23001;SDS011;11667;51.706;4.856;2023-11-19T11:06:55;39.30;;;5.55;;
23001;SDS011;11667;51.706;4.856;2023-11-19T11:09:26;32.20;;;5.08;;
23001;SDS011;11667;51.706;4.856;2023-11-19T11:11:56;29.50;;;4.53;;
23001;SDS011;11667;51.706;4.856;2023-11-19T11:14:26;33.50;;;5.03;;
23001;SDS011;11667;51.706;4.856;2023-11-19T11:16:56;27.95;;;4.45;;
23001;SDS011;11667;51.706;4.856;2023-11-19T11:19:27;30.88;;;5.17;;
23001;SDS011;11667;51.706;4.856;2023-11-19T11:21:56;29.35;;;5.40;;
23001;SDS011;11667;51.706;4.856;2023-11-19T11:24:52;34.78;;;6.03;;
23001;SDS011;11667;51.706;4.856;2023-11-19T11:27:49;36.70;;;5.17;;
23001;SDS011;11667;51.706;4.856;2023-11-19T11:33:32;27.60;;;4.83;;
23001;SDS011;11667;51.706;4.856;2023-11-19T11:41:28;26.48;;;5.10;;
23001;SDS011;11667;51.706;4.856;2023-11-19T11:43:58;28.95;;;4.92;;
23001;SDS011;11667;51.706;4.856;2023-11-19T11:49:05;27.15;;;5.15;;
23001;SDS011;11667;51.706;4.856;2023-11-19T11:57:08;34.13;;;5.28;;
23001;SDS011;11667;51.706;4.856;2023-11-19T11:59:49;30.08;;;5.20;;
23001;SDS011;11667;51.706;4.856;2023-11-19T12:02:20;41.55;;;6.33;;
23001;SDS011;11667;51.706;4.856;2023-11-19T12:04:51;35.00;;;5.37;;
23001;SDS011;11667;51.706;4.856;2023-11-19T12:07:22;38.33;;;5.55;;
23001;SDS011;11667;51.706;4.856;2023-11-19T12:09:56;37.10;;;6.20;;
23001;SDS011;11667;51.706;4.856;2023-11-19T12:12:36;37.63;;;5.78;;
23001;SDS011;11667;51.706;4.856;2023-11-19T12:15:07;41.60;;;7.00;;
23001;SDS011;11667;51.706;4.856;2023-11-19T12:17:48;38.17;;;6.53;;
23001;SDS011;11667;51.706;4.856;2023-11-19T12:20:21;34.58;;;5.55;;
23001;SDS011;11667;51.706;4.856;2023-11-19T12:22:53;37.50;;;6.20;;
23001;SDS011;11667;51.706;4.856;2023-11-19T12:25:22;37.17;;;5.83;;
23001;SDS011;11667;51.706;4.856;2023-11-19T12:27:52;38.78;;;6.25;;
23001;SDS011;11667;51.706;4.856;2023-11-19T12:30:25;46.05;;;7.03;;
23001;SDS011;11667;51.706;4.856;2023-11-19T12:32:56;41.63;;;7.25;;
23001;SDS011;11667;51.706;4.856;2023-11-19T12:35:26;42.23;;;6.25;;
23001;SDS011;11667;51.706;4.856;2023-11-19T12:37:56;40.12;;;6.50;;
23001;SDS011;11667;51.706;4.856;2023-11-19T12:40:25;44.60;;;7.12;;
23001;SDS011;11667;51.706;4.856;2023-11-19T12:42:56;40.35;;;5.53;;
23001;SDS011;11667;51.706;4.856;2023-11-19T12:45:36;38.38;;;5.70;;
23001;SDS011;11667;51.706;4.856;2023-11-19T12:48:07;41.80;;;6.10;;
23001;SDS011;11667;51.706;4.856;2023-11-19T12:50:56;44.03;;;5.90;;
23001;SDS011;11667;51.706;4.856;2023-11-19T12:53:27;39.60;;;5.75;;
23001;SDS011;11667;51.706;4.856;2023-11-19T12:55:59;37.30;;;5.75;;
23001;SDS011;11667;51.706;4.856;2023-11-19T12:58:31;32.13;;;5.53;;
23001;SDS011;11667;51.706;4.856;2023-11-19T13:01:03;31.33;;;4.97;;
23001;SDS011;11667;51.706;4.856;2023-11-19T13:03:36;27.05;;;5.03;;
23001;SDS011;11667;51.706;4.856;2023-11-19T13:06:08;35.13;;;5.17;;
23001;SDS011;11667;51.706;4.856;2023-11-19T13:08:43;37.17;;;5.70;;
23001;SDS011;11667;51.706;4.856;2023-11-19T13:11:13;31.90;;;5.42;;
23001;SDS011;11667;51.706;4.856;2023-11-19T13:13:56;42.73;;;5.37;;
23001;SDS011;11667;51.706;4.856;2023-11-19T13:16:27;34.98;;;5.22;;
23001;SDS011;11667;51.706;4.856;2023-11-19T13:18:57;27.65;;;5.10;;
23001;SDS011;11667;51.706;4.856;2023-11-19T13:21:28;31.07;;;5.35;;
23001;SDS011;11667;51.706;4.856;2023-11-19T13:23:58;35.38;;;5.28;;
23001;SDS011;11667;51.706;4.856;2023-11-19T13:26:27;41.85;;;6.40;;
23001;SDS011;11667;51.706;4.856;2023-11-19T13:28:56;35.70;;;6.17;;
23001;SDS011;11667;51.706;4.856;2023-11-19T13:31:26;32.23;;;5.42;;
23001;SDS011;11667;51.706;4.856;2023-11-19T13:33:56;34.40;;;7.25;;
23001;SDS011;11667;51.706;4.856;2023-11-19T13:36:26;32.25;;;6.17;;
23001;SDS011;11667;51.706;4.856;2023-11-19T13:38:55;34.27;;;5.90;;
23001;SDS011;11667;51.706;4.856;2023-11-19T13:41:27;33.00;;;5.03;;
23001;SDS011;11667;51.706;4.856;2023-11-19T13:43:57;31.73;;;5.03;;
23001;SDS011;11667;51.706;4.856;2023-11-19T13:46:26;32.95;;;4.65;;
23001;SDS011;11667;51.706;4.856;2023-11-19T13:48:55;39.05;;;6.33;;
23001;SDS011;11667;51.706;4.856;2023-11-19T13:51:25;33.55;;;6.00;;
23001;SDS011;11667;51.706;4.856;2023-11-19T13:53:54;40.03;;;5.87;;
23001;SDS011;11667;51.706;4.856;2023-11-19T13:56:23;42.60;;;6.05;;
23001;SDS011;11667;51.706;4.856;2023-11-19T13:58:53;31.57;;;5.28;;
23001;SDS011;11667;51.706;4.856;2023-11-19T14:01:22;33.48;;;6.00;;
23001;SDS011;11667;51.706;4.856;2023-11-19T14:03:53;31.75;;;5.42;;
23001;SDS011;11667;51.706;4.856;2023-11-19T14:06:22;41.15;;;6.25;;
23001;SDS011;11667;51.706;4.856;2023-11-19T14:08:52;35.73;;;5.92;;
23001;SDS011;11667;51.706;4.856;2023-11-19T14:11:21;31.85;;;5.10;;
23001;SDS011;11667;51.706;4.856;2023-11-19T14:13:50;37.42;;;6.35;;
23001;SDS011;11667;51.706;4.856;2023-11-19T14:16:20;35.40;;;6.30;;
23001;SDS011;11667;51.706;4.856;2023-11-19T14:18:51;37.00;;;6.60;;
23001;SDS011;11667;51.706;4.856;2023-11-19T14:21:20;43.28;;;9.18;;
23001;SDS011;11667;51.706;4.856;2023-11-19T14:23:50;33.38;;;5.92;;
23001;SDS011;11667;51.706;4.856;2023-11-19T14:26:38;29.75;;;6.62;;
23001;SDS011;11667;51.706;4.856;2023-11-19T14:29:08;32.90;;;6.28;;
23001;SDS011;11667;51.706;4.856;2023-11-19T14:31:37;28.07;;;5.28;;
23001;SDS011;11667;51.706;4.856;2023-11-19T14:34:07;33.95;;;5.10;;
23001;SDS011;11667;51.706;4.856;2023-11-19T14:36:37;30.00;;;5.22;;
23001;SDS011;11667;51.706;4.856;2023-11-19T14:39:07;33.23;;;5.25;;
23001;SDS011;11667;51.706;4.856;2023-11-19T14:41:36;34.00;;;5.75;;
23001;SDS011;11667;51.706;4.856;2023-11-19T14:44:06;26.30;;;4.67;;
23001;SDS011;11667;51.706;4.856;2023-11-19T14:46:37;36.13;;;5.15;;
23001;SDS011;11667;51.706;4.856;2023-11-19T14:49:07;29.27;;;4.85;;
23001;SDS011;11667;51.706;4.856;2023-11-19T14:51:36;35.75;;;5.15;;
23001;SDS011;11667;51.706;4.856;2023-11-19T14:54:06;41.85;;;5.95;;
23001;SDS011;11667;51.706;4.856;2023-11-19T14:56:36;30.65;;;5.08;;
23001;SDS011;11667;51.706;4.856;2023-11-19T14:59:06;33.10;;;5.33;;
23001;SDS011;11667;51.706;4.856;2023-11-19T15:01:35;25.05;;;5.15;;
23001;SDS011;11667;51.706;4.856;2023-11-19T15:04:05;23.30;;;5.00;;
23001;SDS011;11667;51.706;4.856;2023-11-19T15:06:35;28.23;;;5.12;;
23001;SDS011;11667;51.706;4.856;2023-11-19T15:09:04;26.62;;;4.95;;
23001;SDS011;11667;51.706;4.856;2023-11-19T15:11:35;28.62;;;4.72;;
23001;SDS011;11667;51.706;4.856;2023-11-19T15:14:04;30.10;;;6.05;;